Time;durP1;ratioP1;P1;durP2;ratioP2;P2;SDS_P1;SDS_P2;PMS_P1;PMS_P2;Temp;Humidity;BMP_temperature;BMP_pressure;BME280_temperature;BME280_humidity;BME280_pressure;Samples;Min_cycle;Max_cycle;Signal;HPM_P1;HPM_P2
2022/11/12 00:00:27;;;;;;;2.92;2.03;;;;;;;17.97;61.15;98112.25;10441368;28;20037;-28
2022/11/12 00:05:48;;;;;;;3.17;1.83;;;;;;;17.96;61.09;98112.19;10431780;28;20037;-28
2022/11/12 00:11:07;;;;;;;2.20;1.95;;;;;;;17.91;61.43;98107.03;10438477;28;20041;-28
2022/11/12 00:16:25;;;;;;;2.50;1.98;;;;;;;17.89;61.45;98110.34;10431955;28;20068;-30
2022/11/12 00:21:44;;;;;;;2.20;2.00;;;;;;;17.88;61.53;98108.63;10438633;28;20037;-32
2022/11/12 00:27:03;;;;;;;2.03;1.83;;;;;;;17.81;61.44;98087.34;10436129;28;20446;-29
2022/11/12 00:32:22;;;;;;;2.22;1.90;;;;;;;17.88;61.37;98106.09;10438887;28;20669;-28
2022/11/12 00:37:41;;;;;;;2.50;1.75;;;;;;;17.87;61.45;98106.91;10439364;28;20280;-29
2022/11/12 00:43:00;;;;;;;2.47;1.83;;;;;;;17.85;61.43;98100.97;10434298;28;20065;-29
2022/11/12 00:48:19;;;;;;;2.78;1.77;;;;;;;17.86;61.50;98116.22;10431300;28;20045;-28
2022/11/12 00:53:38;;;;;;;1.85;1.60;;;;;;;17.82;61.45;98103.44;10429842;28;20438;-29
2022/11/12 00:58:58;;;;;;;1.98;1.60;;;;;;;17.85;61.52;98100.97;10437568;28;20041;-28
2022/11/12 01:04:16;;;;;;;2.00;1.80;;;;;;;17.96;61.30;98097.00;10435530;28;20033;-29
2022/11/12 01:09:35;;;;;;;2.45;2.20;;;;;;;17.97;60.93;98098.69;10436355;28;20503;-32
2022/11/12 01:14:55;;;;;;;2.10;1.83;;;;;;;17.98;60.95;98095.38;10438450;28;20465;-30
2022/11/12 01:20:14;;;;;;;1.98;1.73;;;;;;;17.91;61.18;98106.19;10441782;28;20049;-29
2022/11/12 01:25:36;;;;;;;2.08;1.88;;;;;;;17.86;61.40;98097.59;10437491;28;20547;-28
2022/11/12 01:30:55;;;;;;;2.40;2.20;;;;;;;17.85;61.43;98093.34;10427300;28;20053;-29
2022/11/12 01:36:16;;;;;;;2.05;1.85;;;;;;;17.83;61.40;98090.78;10440166;28;20486;-28
2022/11/12 01:41:38;;;;;;;1.63;1.50;;;;;;;17.83;61.41;98088.25;10442995;28;20041;-29
2022/11/12 01:47:03;;;;;;;2.47;2.25;;;;;;;17.85;61.44;98073.09;10446324;28;20041;-28
2022/11/12 01:52:30;;;;;;;3.17;1.98;;;;;;;17.85;61.31;98068.91;10439691;28;20045;-28
2022/11/12 01:57:52;;;;;;;;;;;;;;;17.81;61.58;98072.16;10440350;28;20040;-28
2022/11/12 02:03:17;;;;;;;1.67;1.48;;;;;;;17.78;61.59;98056.03;10441074;28;19920;-29
2022/11/12 02:08:37;;;;;;;3.92;1.88;;;;;;;17.81;61.41;98056.09;10441432;28;20041;-29
2022/11/12 02:13:57;;;;;;;2.75;1.80;;;;;;;17.88;61.12;98047.81;10438009;28;20421;-28
2022/11/12 02:19:16;;;;;;;1.55;1.45;;;;;;;17.94;60.78;98055.56;10437308;28;20049;-27
2022/11/12 02:24:35;;;;;;;1.70;1.60;;;;;;;17.94;60.95;98053.91;10439717;28;20033;-28
2022/11/12 02:29:54;;;;;;;1.67;1.50;;;;;;;17.88;61.09;98053.75;10435936;28;20040;-27
2022/11/12 02:35:13;;;;;;;2.00;1.40;;;;;;;17.87;61.22;98068.91;10434785;28;20041;-29
2022/11/12 02:40:32;;;;;;;2.72;1.30;;;;;;;17.85;61.26;98063.81;10440702;28;20495;-29
2022/11/12 02:45:51;;;;;;;1.77;1.42;;;;;;;17.83;61.40;98064.59;10435368;28;20037;-29
2022/11/12 02:51:10;;;;;;;1.88;1.67;;;;;;;17.81;61.36;98061.16;10437200;28;20033;-28
2022/11/12 02:56:29;;;;;;;2.42;1.38;;;;;;;17.80;61.38;98054.38;10436973;28;20428;-28
2022/11/12 03:01:48;;;;;;;1.80;1.50;;;;;;;17.84;61.16;98051.94;10426671;28;20037;-29
2022/11/12 03:07:07;;;;;;;2.05;1.40;;;;;;;17.84;61.17;98058.72;10433833;28;20127;-28
2022/11/12 03:12:29;;;;;;;2.67;1.63;;;;;;;17.84;61.24;98056.19;10441526;28;20120;-29
2022/11/12 03:17:47;;;;;;;1.52;1.27;;;;;;;17.85;61.16;98052.81;10436018;28;20116;-29
2022/11/12 03:23:09;;;;;;;1.75;1.63;;;;;;;17.92;60.77;98054.69;10430160;28;20049;-29
2022/11/12 03:28:28;;;;;;;2.20;1.75;;;;;;;17.95;60.61;98045.47;10432346;28;20045;-28
2022/11/12 03:33:47;;;;;;;2.55;1.70;;;;;;;17.96;60.67;98044.66;10441554;28;20132;-29
2022/11/12 03:39:06;;;;;;;1.50;1.40;;;;;;;17.91;60.75;98043.69;10437459;28;20053;-29
2022/11/12 03:44:25;;;;;;;1.77;1.67;;;;;;;17.85;61.07;98033.44;10433626;28;20041;-28
2022/11/12 03:49:44;;;;;;;1.80;1.55;;;;;;;17.85;61.16;98032.56;10436397;28;20068;-29
2022/11/12 03:55:05;;;;;;;1.27;1.17;;;;;;;17.85;60.69;98022.41;10429645;28;20045;-28
2022/11/12 04:00:26;;;;;;;2.53;1.58;;;;;;;17.83;61.12;98024.91;10436236;28;20115;-29
2022/11/12 04:11:25;;;;;;;3.63;1.30;;;;;;;17.80;61.13;98022.31;10438485;28;20037;-28
2022/11/12 04:22:22;;;;;;;2.03;1.40;;;;;;;17.81;60.96;98010.47;10437253;28;20037;-28
2022/11/12 04:27:41;;;;;;;1.60;1.40;;;;;;;17.86;60.96;98014.00;10433849;28;20034;-29
2022/11/12 04:33:00;;;;;;;1.50;1.20;;;;;;;17.86;60.69;98014.00;10435184;28;20084;-28
2022/11/12 04:38:19;;;;;;;1.52;1.38;;;;;;;18.00;60.40;98013.47;10436176;28;20032;-28
2022/11/12 04:49:16;;;;;;;1.58;1.38;;;;;;;17.87;60.50;98006.44;10427144;28;20049;-30
2022/11/12 04:54:35;;;;;;;1.25;1.15;;;;;;;17.86;60.82;98014.88;10432799;28;20061;-28
2022/11/12 04:59:54;;;;;;;2.40;1.60;;;;;;;17.88;60.83;98007.28;10440126;28;20041;-28
2022/11/12 05:05:12;;;;;;;1.30;1.20;;;;;;;17.88;60.65;98017.41;10433220;28;20175;-28
2022/11/12 05:10:31;;;;;;;1.35;1.20;;;;;;;17.85;60.70;98017.34;10430897;28;20040;-28
2022/11/12 05:15:50;;;;;;;2.42;1.30;;;;;;;17.86;61.09;98014.88;10437235;28;20041;-28
2022/11/12 05:26:47;;;;;;;1.55;1.45;;;;;;;17.83;60.77;98017.31;10443210;28;20064;-28
2022/11/12 05:32:09;;;;;;;2.65;1.08;;;;;;;17.87;60.54;98020.78;10444044;28;20523;-28
2022/11/12 05:37:27;;;;;;;2.20;1.30;;;;;;;17.85;60.78;98023.28;10443147;28;20076;-29
2022/11/12 05:42:46;;;;;;;1.42;1.33;;;;;;;17.87;60.79;98028.38;10439555;28;20068;-28
2022/11/12 05:48:06;;;;;;;1.30;1.20;;;;;;;17.96;60.14;98020.97;10431674;28;20040;-28
2022/11/12 05:53:24;;;;;;;1.92;1.48;;;;;;;17.98;60.17;98029.50;10437918;28;20045;-28
2022/11/12 05:58:43;;;;;;;2.20;1.00;;;;;;;17.93;60.34;98018.38;10446512;28;20040;-28
2022/11/12 06:04:03;;;;;;;1.42;1.27;;;;;;;17.88;60.62;98037.69;10440496;28;20041;-28
2022/11/12 06:09:22;;;;;;;1.60;1.50;;;;;;;17.87;60.61;98043.56;10435821;28;20791;-28
2022/11/12 06:14:41;;;;;;;1.85;1.58;;;;;;;17.86;60.74;98041.88;10442197;28;20120;-29
2022/11/12 06:20:00;;;;;;;1.23;1.13;;;;;;;17.93;60.56;98036.13;10434401;28;20643;-28
2022/11/12 06:25:19;;;;;;;2.38;1.48;;;;;;;17.98;60.32;98037.09;10440404;28;20491;-28
2022/11/12 06:30:38;;;;;;;1.58;1.23;;;;;;;18.01;60.65;98044.75;10432988;28;20037;-28
2022/11/12 06:36:03;;;;;;;2.00;1.30;;;;;;;18.04;60.40;98042.28;10442157;28;20041;-29
2022/11/12 06:41:22;;;;;;;1.63;1.20;;;;;;;18.03;60.58;98049.03;10438041;28;20044;-29
2022/11/12 06:46:41;;;;;;;1.55;1.38;;;;;;;18.04;60.74;98048.22;10438711;28;20033;-28
2022/11/12 06:52:00;;;;;;;2.17;1.48;;;;;;;18.05;60.49;98042.31;10428489;28;20041;-28
2022/11/12 06:57:19;;;;;;;2.30;1.58;;;;;;;18.11;60.48;98049.19;10430864;28;20480;-29
2022/11/12 07:02:38;;;;;;;1.50;1.40;;;;;;;18.11;60.43;98046.66;10440701;28;20033;-28
2022/11/12 07:07:57;;;;;;;2.63;1.20;;;;;;;18.13;60.57;98047.56;10430240;28;20041;-28
2022/11/12 07:13:17;;;;;;;1.73;0.98;;;;;;;18.11;60.21;98044.13;10435561;28;20046;-28
2022/11/12 07:18:37;;;;;;;3.72;1.35;;;;;;;18.09;60.76;98053.38;10435310;28;20045;-28
2022/11/12 07:23:56;;;;;;;3.22;1.30;;;;;;;18.09;61.08;98049.16;10438585;28;20511;-29
2022/11/12 07:29:15;;;;;;;1.48;1.20;;;;;;;18.11;60.88;98046.66;10432455;28;20052;-28
2022/11/12 07:34:34;;;;;;;9.07;2.05;;;;;;;18.07;61.39;98044.91;10431963;28;20045;-29
2022/11/12 07:39:52;;;;;;;0.98;0.80;;;;;;;17.96;60.89;98036.19;10435825;28;20045;-30
2022/11/12 07:45:11;;;;;;;1.80;1.27;;;;;;;18.07;60.75;98049.97;10436261;28;20037;-29
2022/11/12 07:50:30;;;;;;;1.65;1.08;;;;;;;18.07;60.87;98060.94;10433306;28;20048;-29
2022/11/12 07:55:54;;;;;;;2.95;1.30;;;;;;;18.06;60.89;98043.16;10430554;28;20124;-30
2022/11/12 08:01:38;;;;;;;3.78;1.10;;;;;;;18.10;60.83;98050.91;10439509;28;20041;-32
2022/11/12 08:06:57;;;;;;;2.30;1.00;;;;;;;18.14;61.05;98061.94;10428575;28;20029;-29
2022/11/12 08:12:16;;;;;;;4.57;1.27;;;;;;;18.11;61.11;98064.41;10438181;28;20072;-29
2022/11/12 08:17:38;;;;;;;3.17;1.23;;;;;;;18.10;60.79;98073.72;10424914;28;20062;-30
2022/11/12 08:23:00;;;;;;;8.98;2.03;;;;;;;18.02;60.01;98072.69;10428929;28;20037;-31
2022/11/12 08:28:18;;;;;;;13.18;5.82;;;;;;;18.00;59.56;98088.66;10435772;28;20116;-30
2022/11/12 08:33:38;;;;;;;14.95;7.38;;;;;;;18.02;59.54;98087.00;10431090;28;20037;-30
2022/11/12 08:38:57;;;;;;;11.93;7.28;;;;;;;18.03;59.52;98093.78;10436213;28;20033;-30
2022/11/12 08:44:16;;;;;;;12.00;6.68;;;;;;;18.02;59.70;98099.69;10426930;28;20045;-31
2022/11/12 08:49:35;;;;;;;14.98;8.10;;;;;;;17.99;59.77;98092.84;10423621;28;20041;-30
2022/11/12 08:54:54;;;;;;;16.75;8.48;;;;;;;17.95;60.08;98101.22;10427280;28;20045;-30
2022/11/12 09:00:13;;;;;;;11.68;6.70;;;;;;;17.97;60.19;98114.78;10424591;28;20045;-29
2022/11/12 09:05:34;;;;;;;16.20;6.95;;;;;;;18.02;59.91;98102.22;10437929;28;20048;-31
2022/11/12 09:10:53;;;;;;;14.73;6.43;;;;;;;17.89;60.29;98090.06;10432429;28;20045;-29
2022/11/12 09:16:12;;;;;;;11.30;6.18;;;;;;;17.96;60.29;98094.47;10430082;28;20040;-30
2022/11/12 09:21:31;;;;;;;12.98;6.53;;;;;;;18.09;59.96;98104.09;10428822;28;20049;-30
2022/11/12 09:26:53;;;;;;;20.75;7.57;;;;;;;18.10;60.03;98110.84;10433079;28;20041;-30
2022/11/12 09:32:12;;;;;;;15.32;6.72;;;;;;;18.15;60.00;98096.63;10430801;28;20045;-30
2022/11/12 09:37:31;;;;;;;13.07;6.45;;;;;;;18.14;60.21;98112.63;10432756;28;20041;-30
2022/11/12 09:42:54;;;;;;;17.80;6.10;;;;;;;18.04;60.13;98082.81;10427872;28;20036;-30
2022/11/12 09:48:20;;;;;;;11.05;5.88;;;;;;;18.17;60.37;98102.59;10435043;28;20673;-29
2022/11/12 09:53:51;;;;;;;13.02;5.72;;;;;;;18.16;60.44;98106.78;10431251;28;20045;-30
2022/11/12 09:59:13;;;;;;;12.43;5.97;;;;;;;18.13;60.88;98099.13;10436897;28;20450;-30
2022/11/12 10:04:52;;;;;;;16.90;6.07;;;;;;;18.13;61.21;98098.25;10434365;28;20427;-31
2022/11/12 10:10:36;;;;;;;12.75;4.28;;;;;;;18.15;61.53;98078.88;10434458;28;20407;-30
2022/11/12 10:21:51;;;;;;;10.45;5.43;;;;;;;18.20;61.42;98072.22;10440930;28;20033;-30
2022/11/12 10:27:16;;;;;;;10.75;5.03;;;;;;;18.23;61.62;98062.13;10437871;28;20053;-31
2022/11/12 10:32:35;;;;;;;16.98;5.97;;;;;;;18.22;61.89;98060.44;10443239;28;20041;-30
2022/11/12 10:38:10;;;;;;;15.13;5.57;;;;;;;18.24;61.65;98058.81;10438512;28;20120;-30
2022/11/12 10:43:29;;;;;;;15.20;5.70;;;;;;;18.24;61.80;98053.75;10435144;28;20037;-29
2022/11/12 10:48:55;;;;;;;13.63;5.60;;;;;;;18.20;61.92;98046.88;10437690;28;20037;-30
2022/11/12 10:54:26;;;;;;;12.75;5.07;;;;;;;18.18;62.56;98048.53;10427091;28;20036;-29
2022/11/12 10:59:45;;;;;;;14.77;5.88;;;;;;;18.12;62.15;98033.16;10416852;28;20229;-31
2022/11/12 11:05:32;;;;;;;11.32;5.55;;;;;;;18.15;61.98;98040.88;10425263;28;20033;-30
2022/11/12 11:11:13;;;;;;;13.35;5.28;;;;;;;18.14;62.22;98031.53;10424300;28;20123;-30
2022/11/12 11:16:47;;;;;;;15.20;6.10;;;;;;;18.14;62.38;98023.91;10412255;28;20045;-30
2022/11/12 11:22:18;;;;;;;17.60;6.60;;;;;;;18.13;62.64;98015.47;10423906;28;20030;-30
2022/11/12 11:27:54;;;;;;;18.75;5.68;;;;;;;18.13;62.60;98012.06;10431839;28;20116;-31
2022/11/12 11:33:39;;;;;;;19.45;7.10;;;;;;;18.11;62.74;98001.03;10422536;28;20037;-30
2022/11/12 11:39:14;;;;;;;15.15;6.85;;;;;;;17.95;57.22;97994.81;10419654;28;20040;-29
2022/11/12 11:45:17;;;;;;;16.17;7.20;;;;;;;18.04;59.71;97979.78;10425541;28;20045;-31
2022/11/12 11:50:49;;;;;;;14.60;7.30;;;;;;;18.07;61.03;97963.81;10401420;28;20037;-30
2022/11/12 11:56:20;;;;;;;13.85;6.65;;;;;;;18.10;61.17;97968.94;10434518;28;20048;-30
2022/11/12 12:01:48;;;;;;;15.63;7.28;;;;;;;18.09;61.31;97952.00;10431903;28;20088;-29
2022/11/12 12:07:22;;;;;;;12.30;6.63;;;;;;;18.08;61.57;97950.31;10428657;28;20527;-30
2022/11/12 12:13:07;;;;;;;12.20;5.80;;;;;;;18.08;61.79;97942.69;10440029;28;20046;-29
2022/11/12 12:19:05;;;;;;;11.27;6.32;;;;;;;18.07;61.80;97935.94;10432182;28;20487;-31
2022/11/12 12:24:34;;;;;;;13.73;6.03;;;;;;;18.05;61.77;97937.56;10427106;28;20502;-30
2022/11/12 12:30:03;;;;;;;11.40;5.68;;;;;;;18.07;62.11;97943.53;10432955;28;20547;-30
2022/11/12 12:35:30;;;;;;;14.45;6.30;;;;;;;18.02;62.09;97933.28;10431536;28;20116;-30
2022/11/12 12:41:10;;;;;;;9.88;5.82;;;;;;;17.94;62.09;97916.22;10436669;28;20046;-30
2022/11/12 12:46:31;;;;;;;9.75;6.38;;;;;;;18.01;62.12;97929.03;10431884;28;20064;-30
2022/11/12 12:51:50;;;;;;;9.07;5.72;;;;;;;18.04;62.18;97923.16;10433122;28;20423;-30
2022/11/12 12:57:30;;;;;;;11.73;6.15;;;;;;;18.05;62.18;97925.75;10434727;28;20068;-29
2022/11/12 13:02:50;;;;;;;6.68;5.10;;;;;;;18.04;62.31;97918.09;10430884;28;20041;-30
2022/11/12 13:08:21;;;;;;;8.80;5.50;;;;;;;18.05;62.07;97913.06;10430904;28;20041;-30
2022/11/12 13:13:40;;;;;;;10.23;4.60;;;;;;;18.02;62.32;97920.63;10438273;28;20511;-30
2022/11/12 13:19:00;;;;;;;11.60;6.00;;;;;;;17.99;62.24;97912.09;10433951;28;20045;-30
2022/11/12 13:24:57;;;;;;;6.22;4.75;;;;;;;18.03;62.47;97916.41;10437398;28;20037;-30
2022/11/12 13:30:17;;;;;;;15.40;5.28;;;;;;;18.01;62.29;97915.53;10423807;28;20041;-31
2022/11/12 13:35:39;;;;;;;6.25;4.95;;;;;;;17.98;62.32;97912.94;10443304;28;20123;-30
2022/11/12 13:41:18;;;;;;;6.63;4.57;;;;;;;17.98;62.39;97913.78;10440131;28;20141;-30
2022/11/12 13:46:37;;;;;;;6.88;4.40;;;;;;;17.96;62.59;97909.50;10436313;28;20495;-30
2022/11/12 13:51:56;;;;;;;8.65;5.00;;;;;;;17.94;62.58;97896.81;10437637;28;20128;-30
2022/11/12 13:57:18;;;;;;;6.32;4.85;;;;;;;17.88;62.60;97884.00;10438420;28;20044;-29
2022/11/12 14:02:40;;;;;;;7.40;4.55;;;;;;;17.91;62.39;97880.69;10439388;28;20033;-29
2022/11/12 14:08:40;;;;;;;7.18;4.63;;;;;;;18.00;62.50;97891.00;10443778;28;20045;-29
2022/11/12 14:14:20;;;;;;;6.82;5.10;;;;;;;17.99;62.42;97889.28;10442074;28;20040;-31
2022/11/12 14:20:07;;;;;;;6.65;4.93;;;;;;;17.96;62.49;97879.06;10439439;28;20037;-29
2022/11/12 14:25:27;;;;;;;6.95;4.18;;;;;;;17.92;62.73;97895.06;10442712;28;20044;-30
2022/11/12 14:30:46;;;;;;;6.47;4.43;;;;;;;17.93;63.27;97884.09;10439103;28;20045;-31
2022/11/12 14:36:14;;;;;;;7.30;4.80;;;;;;;17.90;62.63;97873.91;10435900;28;20514;-31
2022/11/12 14:41:37;;;;;;;7.07;4.40;;;;;;;17.90;62.79;97889.13;10439984;28;20040;-32
2022/11/12 14:46:59;;;;;;;5.57;4.30;;;;;;;17.89;62.69;97877.25;10435034;28;20037;-30
2022/11/12 14:52:21;;;;;;;5.50;4.22;;;;;;;17.87;62.76;97868.75;10436144;28;20042;-30
2022/11/12 14:57:41;;;;;;;7.13;4.63;;;;;;;17.87;62.82;97866.22;10436944;28;20201;-31
2022/11/12 15:03:00;;;;;;;6.15;3.70;;;;;;;17.86;62.96;97867.06;10426674;28;20042;-30
2022/11/12 15:08:28;;;;;;;5.28;4.30;;;;;;;17.84;62.89;97864.47;10431609;28;20088;-30
2022/11/12 15:13:48;;;;;;;5.93;3.90;;;;;;;17.86;62.74;97844.25;10438161;28;20415;-31
2022/11/12 15:19:16;;;;;;;7.15;4.18;;;;;;;17.92;62.81;97846.91;10436346;28;20312;-30
2022/11/12 15:24:37;;;;;;;6.45;5.00;;;;;;;17.93;62.64;97841.03;10438442;28;20060;-30
2022/11/12 15:30:13;;;;;;;5.93;4.47;;;;;;;17.90;62.87;97843.50;10434395;28;20045;-32
2022/11/12 15:35:38;;;;;;;6.45;4.35;;;;;;;17.87;62.82;97835.81;10432883;28;20049;-30
2022/11/12 15:40:57;;;;;;;5.60;4.05;;;;;;;17.85;62.95;97835.81;10432004;28;20446;-31
2022/11/12 15:46:16;;;;;;;4.70;3.60;;;;;;;17.84;63.02;97839.16;10437707;28;20036;-31
2022/11/12 15:51:35;;;;;;;4.20;3.55;;;;;;;17.82;63.05;97829.84;10433963;28;20045;-31
2022/11/12 15:56:54;;;;;;;5.38;3.80;;;;;;;17.80;63.03;97831.44;10433806;28;20041;-30
2022/11/12 16:02:14;;;;;;;6.50;4.28;;;;;;;17.75;63.13;97818.69;10440962;28;20041;-29
2022/11/12 16:07:33;;;;;;;7.22;4.65;;;;;;;17.79;62.92;97819.63;10429876;28;20048;-30
2022/11/12 16:12:56;;;;;;;4.53;3.83;;;;;;;17.80;63.03;97812.06;10438603;28;20041;-30
2022/11/12 16:18:16;;;;;;;4.22;3.25;;;;;;;17.78;63.07;97805.25;10430887;28;20040;-30
2022/11/12 16:23:35;;;;;;;5.93;3.75;;;;;;;17.79;63.08;97799.34;10429660;28;20120;-31
2022/11/12 16:28:56;;;;;;;5.57;4.63;;;;;;;17.86;62.99;97796.13;10434499;28;20037;-30
2022/11/12 16:34:15;;;;;;;6.15;3.83;;;;;;;17.85;62.97;97787.69;10431236;28;20032;-31
2022/11/12 16:39:33;;;;;;;5.05;3.67;;;;;;;17.86;63.08;97788.53;10436043;28;20034;-30
2022/11/12 16:44:52;;;;;;;6.00;3.50;;;;;;;17.84;63.00;97790.19;10428402;28;20046;-30
2022/11/12 16:50:15;;;;;;;5.88;3.78;;;;;;;17.80;63.06;97790.94;10433677;28;20037;-30
2022/11/12 16:55:34;;;;;;;5.30;3.40;;;;;;;17.71;63.09;97780.63;10432674;28;20052;-30
2022/11/12 17:00:54;;;;;;;4.50;3.03;;;;;;;17.79;62.82;97795.16;10432122;28;20235;-30
2022/11/12 17:06:13;;;;;;;4.38;3.60;;;;;;;17.76;63.09;97794.25;10429541;28;20426;-30
2022/11/12 17:11:33;;;;;;;5.25;3.30;;;;;;;17.76;63.22;97805.19;10446379;28;20045;-29
2022/11/12 17:16:52;;;;;;;5.68;3.88;;;;;;;17.73;63.33;97812.75;10431064;28;20230;-31
2022/11/12 17:22:11;;;;;;;5.38;4.18;;;;;;;17.75;63.19;97812.78;10436544;28;20045;-30
2022/11/12 17:27:30;;;;;;;4.43;3.63;;;;;;;17.72;63.34;97813.59;10441906;28;20038;-30
2022/11/12 17:32:49;;;;;;;5.60;3.50;;;;;;;17.75;63.01;97817.88;10441864;28;20041;-30
2022/11/12 17:38:08;;;;;;;3.88;3.35;;;;;;;17.80;63.26;97812.06;10441652;28;20418;-29
2022/11/12 17:43:27;;;;;;;4.95;4.10;;;;;;;17.85;62.93;97807.09;10437309;28;20120;-30
2022/11/12 17:48:46;;;;;;;5.82;3.72;;;;;;;17.82;62.93;97801.97;10442070;28;20046;-30
2022/11/12 17:54:05;;;;;;;4.13;3.65;;;;;;;17.79;63.08;97801.88;10441639;28;20442;-29
2022/11/12 17:59:24;;;;;;;4.90;4.00;;;;;;;17.76;63.31;97796.78;10440839;28;20049;-30
2022/11/12 18:04:43;;;;;;;4.20;3.40;;;;;;;17.76;63.36;97784.09;10429706;28;20233;-30
2022/11/12 18:10:02;;;;;;;5.15;3.92;;;;;;;17.66;63.34;97764.50;10437992;28;20499;-31
2022/11/12 18:15:21;;;;;;;4.82;4.00;;;;;;;17.72;63.36;97782.31;10439983;28;20037;-31
2022/11/12 18:20:41;;;;;;;5.47;3.95;;;;;;;17.72;63.30;97777.25;10442216;28;20042;-32
2022/11/12 18:26:00;;;;;;;4.80;3.92;;;;;;;17.71;63.48;97778.09;10441854;28;20499;-29
2022/11/12 18:31:20;;;;;;;3.70;3.28;;;;;;;17.72;63.24;97772.19;10437199;28;20057;-31
2022/11/12 18:36:39;;;;;;;4.05;3.00;;;;;;;17.69;63.33;97769.59;10441278;28;20068;-30
2022/11/12 18:41:58;;;;;;;6.18;3.45;;;;;;;17.69;63.50;97767.94;10438029;28;20041;-30
2022/11/12 18:47:17;;;;;;;4.55;3.05;;;;;;;17.73;63.48;97761.25;10441928;28;20123;-29
2022/11/12 18:52:36;;;;;;;3.95;3.25;;;;;;;17.77;63.44;97755.41;10433783;28;20037;-30
2022/11/12 18:57:55;;;;;;;5.68;3.67;;;;;;;17.79;63.58;97758.81;10435676;28;20040;-31
2022/11/12 19:03:14;;;;;;;5.35;3.45;;;;;;;17.77;63.36;97752.88;10437932;28;20033;-28
2022/11/12 19:08:34;;;;;;;4.35;3.35;;;;;;;17.73;63.46;97748.59;10438003;28;20041;-30
2022/11/12 19:13:54;;;;;;;2.92;2.63;;;;;;;17.74;63.34;97750.31;10438816;28;20037;-29
2022/11/12 19:19:14;;;;;;;4.75;3.55;;;;;;;17.71;63.40;97735.91;10435415;28;20124;-30
2022/11/12 19:24:33;;;;;;;3.33;2.53;;;;;;;17.70;63.38;97728.25;10440802;28;20037;-30
2022/11/12 19:29:53;;;;;;;4.15;3.40;;;;;;;17.68;63.59;97730.75;10434493;28;20045;-30
2022/11/12 19:35:12;;;;;;;4.55;3.55;;;;;;;17.68;63.16;97724.84;10433732;28;20040;-30
2022/11/12 19:40:31;;;;;;;4.25;3.00;;;;;;;17.67;63.78;97728.22;10438394;28;20116;-30
2022/11/12 19:45:49;;;;;;;3.47;2.90;;;;;;;17.64;63.50;97712.94;10429683;28;20494;-29
2022/11/12 19:51:11;;;;;;;4.65;3.47;;;;;;;17.64;63.83;97712.94;10439680;28;20240;-27
2022/11/12 19:56:32;;;;;;;3.33;2.85;;;;;;;17.57;63.83;97694.25;10434426;28;20041;-31
2022/11/12 20:01:51;;;;;;;3.78;2.88;;;;;;;17.72;63.51;97697.06;10438711;28;20037;-31
2022/11/12 20:07:10;;;;;;;3.53;2.92;;;;;;;17.74;63.61;97699.66;10431676;28;20037;-30
2022/11/12 20:12:29;;;;;;;3.15;2.85;;;;;;;17.72;63.43;97696.22;10434968;28;20415;-29
2022/11/12 20:17:47;;;;;;;3.58;3.00;;;;;;;17.68;63.47;97710.50;10434877;28;20047;-31
2022/11/12 20:23:06;;;;;;;3.83;2.88;;;;;;;17.71;63.32;97699.56;10432945;28;20510;-31
2022/11/12 20:28:25;;;;;;;4.57;3.70;;;;;;;17.68;63.58;97694.47;10435279;28;20045;-31
2022/11/12 20:33:45;;;;;;;4.20;3.17;;;;;;;17.67;63.33;97702.88;10436959;28;20037;-30
2022/11/12 20:39:05;;;;;;;3.47;3.00;;;;;;;17.63;63.56;97711.22;10436607;28;20033;-30
2022/11/12 20:44:24;;;;;;;3.90;3.03;;;;;;;17.62;63.67;97704.47;10433095;28;20063;-30
2022/11/12 20:49:43;;;;;;;3.42;2.78;;;;;;;17.62;63.73;97709.53;10435784;28;20045;-29
2022/11/12 20:55:02;;;;;;;3.15;2.80;;;;;;;17.60;63.68;97706.13;10428780;28;20040;-30
2022/11/12 21:00:21;;;;;;;3.33;2.65;;;;;;;17.62;63.63;97712.06;10434027;28;20040;-30
2022/11/12 21:05:40;;;;;;;3.65;3.03;;;;;;;17.59;63.89;97704.41;10430380;28;20042;-30
2022/11/12 21:11:01;;;;;;;3.08;2.70;;;;;;;17.62;63.65;97690.13;10433167;28;20045;-32
2022/11/12 21:16:20;;;;;;;3.50;3.20;;;;;;;17.71;63.29;97691.97;10434100;28;20495;-30
2022/11/12 21:21:39;;;;;;;3.97;2.40;;;;;;;17.70;63.49;97693.66;10430337;28;20495;-30
2022/11/12 21:26:58;;;;;;;2.50;2.20;;;;;;;17.68;63.42;97694.47;10435466;28;20499;-30
2022/11/12 21:32:17;;;;;;;3.25;2.78;;;;;;;17.65;63.17;97681.75;10429672;28;20033;-30
2022/11/12 21:37:35;;;;;;;3.85;3.00;;;;;;;17.64;63.37;97678.34;10435887;28;20029;-31
2022/11/12 21:42:54;;;;;;;3.50;2.47;;;;;;;17.62;63.59;97666.47;10431141;28;20045;-30
2022/11/12 21:48:13;;;;;;;3.22;2.53;;;;;;;17.61;63.65;97663.13;10437454;28;20049;-30
2022/11/12 21:53:33;;;;;;;3.00;2.45;;;;;;;17.60;63.69;97650.41;10431661;28;20041;-30
2022/11/12 21:58:58;;;;;;;2.70;2.42;;;;;;;17.59;63.49;97638.59;10445200;28;20040;-30
2022/11/12 22:04:17;;;;;;;3.13;2.60;;;;;;;17.56;63.50;97641.06;10441173;28;20492;-30
2022/11/12 22:09:36;;;;;;;3.00;2.60;;;;;;;17.57;63.80;97630.13;10433144;28;20301;-30
2022/11/12 22:14:55;;;;;;;4.32;2.90;;;;;;;17.54;63.85;97632.56;10436191;28;20068;-30
2022/11/12 22:20:14;;;;;;;3.08;2.67;;;;;;;17.49;63.51;97621.53;10445340;28;20036;-30
2022/11/12 22:25:34;;;;;;;2.90;2.63;;;;;;;17.65;63.58;97626.03;10440792;28;20041;-30
2022/11/12 22:30:53;;;;;;;2.85;2.55;;;;;;;17.70;63.19;97624.41;10434597;28;20041;-29
2022/11/12 22:36:19;;;;;;;2.90;2.30;;;;;;;17.64;63.58;97625.16;10442379;28;20052;-30
2022/11/12 22:41:38;;;;;;;2.17;1.83;;;;;;;17.65;63.33;97618.44;10437924;28;20040;-30
2022/11/12 22:46:57;;;;;;;3.15;2.85;;;;;;;17.62;63.29;97603.19;10440865;28;20072;-30
2022/11/12 22:52:16;;;;;;;2.40;2.20;;;;;;;17.60;63.42;97597.25;10437923;28;20066;-30
2022/11/12 22:57:35;;;;;;;2.78;2.40;;;;;;;17.58;63.52;97586.25;10435626;28;20052;-30
2022/11/12 23:02:54;;;;;;;2.70;2.33;;;;;;;17.55;63.69;97568.44;10435168;28;20072;-30
2022/11/12 23:08:13;;;;;;;2.35;2.15;;;;;;;17.54;63.83;97565.06;10431946;28;20506;-30
2022/11/12 23:13:32;;;;;;;2.88;2.55;;;;;;;17.51;63.76;97549.81;10438040;28;20268;-29
2022/11/12 23:18:53;;;;;;;3.17;2.25;;;;;;;17.51;63.81;97549.81;10436272;28;20450;-30
2022/11/12 23:24:13;;;;;;;2.55;1.85;;;;;;;17.54;63.82;97554.06;10439189;28;20033;-30
2022/11/12 23:29:31;;;;;;;2.65;2.40;;;;;;;17.50;63.58;97542.22;10435554;28;20032;-29
2022/11/12 23:34:50;;;;;;;2.30;2.10;;;;;;;17.58;63.41;97531.38;10443915;28;20045;-30
2022/11/12 23:40:09;;;;;;;2.90;2.58;;;;;;;17.63;63.51;97528.91;10436098;28;20033;-30
2022/11/12 23:45:28;;;;;;;2.40;2.20;;;;;;;17.63;63.26;97536.50;10435670;28;20419;-30
2022/11/12 23:50:49;;;;;;;2.50;2.08;;;;;;;17.59;63.23;97528.00;10433272;28;20037;-30
2022/11/12 23:56:10;;;;;;;2.25;2.00;;;;;;;17.58;63.11;97520.41;10434820;28;20033;-29
